« 「空の日」その2 能登空港 2014/10/12 sun | トップページ | 趣味的航空路誌改訂情報 2014/10/16 thu »

2014/10/15

定点 富山空港 2014/10/14 tue

新「つるぎ」の到着に立ち会えず、9841思いをしている小生です。台風一過とならない残念な天候ですが、フェンス際に・・

RJNT 140100Z 30008KT 9999 FEW010 SCT025 BKN040 16/13 Q1006

20141014_rjnt_00ja139t

おやおや、外にさらされておりました。

20141014_rjnt_01ja139t_2

JA139T AW139 富山県警察

20141014_rjnt_02ja6769

何のことは無い、台風の通過中に外にさらされていた6769の整備の為でした。

20141014_rjnt_03ja6769

6769はまたまた、ドナドナされて定置場所?へ

20141014_rjnt_04ja817a

20141014_rjnt_05ja817a

ANA883 RJTT-RJNT JA817A B787-8

20141014_rjnt_06hl8004

20141014_rjnt_07hl8004

20141014_rjnt_08hl8004

AAR128 RKSI-RJNT HL8004 A321-231

初飛来かと思ったら・・ 10日に来てたのね。

RJNT 140200Z 31009KT 9999 FEW010 BKN030 BKN050 18/12 Q1007

20141014_rjnt_09ja6769

戻ってみると、定置状態に戻っておりました。

20141014_rjnt_10ja817a

20141014_rjnt_11ja817a

20141014_rjnt_12ja817a

ANA886 RJNT-RJTT JA817A B787-8

20141014_rjnt_13hl8004

20141014_rjnt_14hl8004

20141014_rjnt_15hl8004

AAR127 RJNT-RKSI HL8004 A321-231

RJNT 140300Z 33009KT 9999 FEW025 BKN030 BKN050 18/12 Q1007

20141014_rjnt_16b1900

20141014_rjnt_17b1900

RJNT 140400Z 31005KT 250V040 9999 -SHRA FEW025 BKN030 BKN050 17/13 Q1008

20141014_rjnt_18b1900

CSH825 ZSPD-RJNT B-1900 B737-86D

20141014_rjnt_19ja300k

20141014_rjnt_20ja300k

ADO120 RJCC-RJNT JA300K B737-54K

20141014_rjnt_21b1900

20141014_rjnt_22b1900

20141014_rjnt_23b1900

CSH826 RJNT-ZSPD B-1900 B737-86D

RJNT 140500Z 29009KT 200V320 9999 -SHRA FEW025 SCT030 BKN050 18/12 Q1008

20141014_rjnt_24ja8567

20141014_rjnt_25ja8567

20141014_rjnt_26ja8567

20141014_rjnt_27ja8567

20141014_rjnt_28ja8567

20141014_rjnt_29ja8567

ANA885 RJTT-RJNT JA8567 B767-381

20141014_rjnt_30ja300k

ADO121 RJNT-RJCC JA300K B737-54K

RJNT 140628Z 32006KT 9999 -SHRA FEW025 SCT030 BKN050 17/12 Q1009 RMK 1CU025 3CU030 5CU050 A2982

20141014_rjnt_31ja8567

ANA888 RJNT-RJTT JA8567 B767-381

RJTT-RJNT
ANA     /882 JA811A
ANA881/884 JA8669
ANA883/886 JA817A
ANA885/888 JA8567
ANA887/890 JA811A
ANA889/892 JA812A
ANA891       JA8669

RJCC-RJNT
ADO120/121 JA300K

RKSI-RJNT
AAR128/127 HL8004 

ZSPD-RJNT
CSH825/826 B-1900

RJTT-RJNW
ANA747/748 JA64AN
ANA749/750 JA69AN
CAL7592/7591 B-18651

|

« 「空の日」その2 能登空港 2014/10/12 sun | トップページ | 趣味的航空路誌改訂情報 2014/10/16 thu »

富山空港」カテゴリの記事

コメント

コメントを書く



(ウェブ上には掲載しません)


コメントは記事投稿者が公開するまで表示されません。



トラックバック


この記事へのトラックバック一覧です: 定点 富山空港 2014/10/14 tue:

« 「空の日」その2 能登空港 2014/10/12 sun | トップページ | 趣味的航空路誌改訂情報 2014/10/16 thu »